메인 페이지
METAR-TAF:

METAR-TAF

공항 :

김포국제공항

김포, 대한민국

위도: 37-33N, 경도: 126-48E, 고도: 18m

현재 날씨관측

예보는 17분 전, 15:00시(UTC)에 발표되었습니다.
5kt
온도 28°C
습도 74%
기압 1006 hPa
시정 10km 이상
1500m 미만 상공 구름 및 적란운 없음

METAR: RKSS 151500Z 01005KT CAVOK 28/23 Q1006 NOSIG

시각: 00:17 (15:17 UTC)

예보

예보는 4 시간 17분 전, 11:00시(UTC)에 발표되었습니다.
예보 대상 시간: 15일 12시부터 16일 18시까지 (UTC)
북동7kt
시정: 7000m
고도 3000ft 상공 구름 보통
전환 중
16일 00시부터 16일 01시까지 (UTC)
남동10kt
전환 중
16일 02시부터 16일 03시까지 (UTC)
동북동15kt, 순간 최대 풍속 25kt
전환 중
16일 11시부터 16일 12시까지 (UTC)
동북동10kt

TAF: RKSS 151100Z 1512/1618 05007KT 7000 SCT030 TN26/1520Z TX35/1605Z BECMG 1600/1601 13010KT BECMG 1602/1603 07015G25KT BECMG 1611/1612 06010KT

4,000개 이상의 공항 관측 자료 및 예보 (METAR 및 TAF 보고).

지도상에서 검색 가능한 기상관측소가 노란 점과 빨간 점으로 표시되어 있습니다.

기상관측소 명을 보려면 표시 위로 마우스를 이동하세요.

날씨 관측과 예보를 보려면 클릭하세요.

지도 변경 : 확대하려면 엑스 표시가 있는 녹색 버튼, 축소하려면 빼기 표시가 있는 녹색 버튼, 다음 페이지의 지도를 보려면 녹색 화살표를 클릭하세요.


METAR-TAF: